Terminal Aerodrome Forecast
Issued by NWS Twin Cities, MN

Home | Current Version | Previous Version | Text Only | Print | Product List | Glossary Off
Versions: 1 2 3 4 5 6 7 8 9 10 11 12 13 14 15 16 17 18 19 20 21 22 23 24 25 26

000
FTUS43 KMPX 190500
TAFMSP
TAF
KMSP 190521Z 1906/2012 15011KT P6SM BKN250
     FM191000 16014KT P6SM FEW025 BKN150
     FM191600 18017G23KT P6SM VCSH BKN030 OVC050
     FM192000 19015G22KT P6SM OVC035
     FM200000 19011KT P6SM VCTS BKN040CB OVC080
     FM200600 22007KT 6SM BR SCT015 BKN060=

USA.gov is the U.S. government's official web portal to all federal, state and local government web resources and services.